Time;durP1;ratioP1;P1;durP2;ratioP2;P2;SDS_P1;SDS_P2;PMS_P1;PMS_P2;Temp;Humidity;BMP_temperature;BMP_pressure;BME280_temperature;BME280_humidity;BME280_pressure;Samples;Min_cycle;Max_cycle;Signal;HPM_P1;HPM_P2
2023/10/24 00:00:29;;;;;;;15.13;9.82;;;;;;;11.18;100.00;100130.56;5030916;28;20375;-73
2023/10/24 00:02:56;;;;;;;17.70;10.05;;;;;;;11.20;100.00;100127.84;5025941;28;20041;-73
2023/10/24 00:05:24;;;;;;;15.00;9.07;;;;;;;11.25;100.00;100135.56;5018546;28;20092;-73
2023/10/24 00:07:51;;;;;;;15.38;9.20;;;;;;;11.26;100.00;100134.63;4994451;28;20057;-73
2023/10/24 00:10:18;;;;;;;19.80;9.93;;;;;;;11.29;100.00;100123.97;5023256;28;20103;-74
2023/10/24 00:12:45;;;;;;;16.20;9.02;;;;;;;11.32;100.00;100123.84;5038858;28;20042;-73
2023/10/24 00:15:12;;;;;;;17.98;9.55;;;;;;;11.31;100.00;100122.97;5022519;28;20117;-72
2023/10/24 00:17:39;;;;;;;18.50;8.82;;;;;;;11.34;100.00;100137.81;5027523;28;20045;-72
2023/10/24 00:20:07;;;;;;;15.18;8.82;;;;;;;11.37;100.00;100134.19;5015061;28;20057;-73
2023/10/24 00:22:34;;;;;;;15.38;8.70;;;;;;;11.36;100.00;100120.13;5017661;28;20041;-73
2023/10/24 00:25:01;;;;;;;13.52;8.45;;;;;;;11.38;100.00;100118.28;5027310;28;20045;-73
2023/10/24 00:27:29;;;;;;;14.02;8.02;;;;;;;11.39;100.00;100119.97;5027086;28;20569;-71
2023/10/24 00:29:56;;;;;;;13.98;7.75;;;;;;;11.43;100.00;100125.97;5026344;28;20053;-71
2023/10/24 00:32:23;;;;;;;14.73;6.80;;;;;;;11.45;100.00;100121.50;5007165;28;20131;-71
2023/10/24 00:34:50;;;;;;;11.93;7.03;;;;;;;11.49;100.00;100123.06;5007759;28;20046;-72
2023/10/24 00:37:17;;;;;;;12.75;7.10;;;;;;;11.52;100.00;100117.63;5022155;28;20037;-71
2023/10/24 00:39:45;;;;;;;9.73;6.40;;;;;;;11.58;100.00;100116.50;5024471;28;20129;-71
2023/10/24 00:42:12;;;;;;;9.23;6.32;;;;;;;11.60;100.00;100112.00;5026843;28;20041;-72
2023/10/24 00:44:39;;;;;;;15.27;7.13;;;;;;;11.62;100.00;100113.66;5022460;28;20038;-72
2023/10/24 00:47:07;;;;;;;10.88;6.43;;;;;;;11.63;100.00;100118.00;5023869;28;20045;-72
2023/10/24 00:49:34;;;;;;;11.25;6.40;;;;;;;11.68;100.00;100125.72;5018046;28;20046;-72
2023/10/24 00:52:01;;;;;;;10.90;6.90;;;;;;;11.69;100.00;100123.94;5031154;28;20072;-72
2023/10/24 00:54:31;;;;;;;13.70;6.78;;;;;;;11.70;100.00;100118.56;5023646;28;20064;-72
2023/10/24 00:56:59;;;;;;;12.25;6.40;;;;;;;11.71;100.00;100128.22;5024605;28;20071;-72
2023/10/24 00:59:27;;;;;;;10.25;6.80;;;;;;;11.71;100.00;100122.94;5033745;28;20430;-72
2023/10/24 01:01:55;;;;;;;11.50;6.95;;;;;;;11.73;100.00;100139.56;5014933;28;20136;-72
2023/10/24 01:04:23;;;;;;;11.70;6.68;;;;;;;11.73;100.00;100136.94;5023055;28;20072;-72
2023/10/24 01:06:50;;;;;;;10.38;7.20;;;;;;;11.74;100.00;100146.56;5019711;28;20543;-72
2023/10/24 01:09:17;;;;;;;10.93;6.57;;;;;;;11.78;100.00;100136.72;5003954;28;20432;-72
2023/10/24 01:11:44;;;;;;;11.60;6.97;;;;;;;11.79;100.00;100141.91;5023179;28;20045;-70
2023/10/24 01:14:11;;;;;;;11.45;6.72;;;;;;;11.77;100.00;100141.13;5022078;28;20091;-70
2023/10/24 01:16:44;;;;;;;10.98;6.78;;;;;;;11.78;100.00;100137.56;5027340;28;20038;-70
2023/10/24 01:19:12;;;;;;;10.00;6.57;;;;;;;11.79;100.00;100128.72;5020611;28;20125;-70
2023/10/24 01:21:44;;;;;;;9.77;6.68;;;;;;;11.78;100.00;100119.06;5010579;28;20115;-70
2023/10/24 01:24:17;;;;;;;8.18;7.20;;;;;;;11.78;100.00;100121.72;5023290;28;20057;-70
2023/10/24 01:26:44;;;;;;;10.18;6.97;;;;;;;11.80;100.00;100121.66;5059390;28;20137;-71
2023/10/24 01:29:12;;;;;;;10.60;7.30;;;;;;;11.79;100.00;100131.34;5031396;28;20048;-71
2023/10/24 01:31:39;;;;;;;10.60;7.03;;;;;;;11.80;100.00;100133.06;5025687;28;20447;-71
2023/10/24 01:34:07;;;;;;;11.60;7.22;;;;;;;11.81;100.00;100125.97;5054618;28;20320;-70
2023/10/24 01:36:34;;;;;;;9.77;6.97;;;;;;;11.82;100.00;100127.69;5022675;28;20199;-70
2023/10/24 01:39:01;;;;;;;11.75;7.25;;;;;;;11.82;100.00;100130.34;5016775;28;20124;-71
2023/10/24 01:41:28;;;;;;;10.27;7.30;;;;;;;11.84;100.00;100140.84;5016176;28;20045;-71
2023/10/24 01:43:55;;;;;;;13.38;6.93;;;;;;;11.84;100.00;100135.56;5024482;28;20057;-71
2023/10/24 01:46:22;;;;;;;12.20;7.28;;;;;;;11.84;100.00;100149.63;5042025;28;20076;-71
2023/10/24 01:48:50;;;;;;;10.23;6.20;;;;;;;11.85;100.00;100147.84;5021939;28;20621;-71
2023/10/24 01:51:19;;;;;;;11.65;7.20;;;;;;;11.84;100.00;100132.94;5022268;28;20402;-71
2023/10/24 01:53:46;;;;;;;8.50;6.47;;;;;;;11.85;100.00;100122.28;5022901;28;20052;-72
2023/10/24 01:56:14;;;;;;;9.70;6.75;;;;;;;11.83;100.00;100121.50;5024699;28;20685;-71
2023/10/24 01:58:41;;;;;;;10.57;6.53;;;;;;;11.83;100.00;100129.41;5010775;28;20045;-72
2023/10/24 02:01:08;;;;;;;8.23;5.88;;;;;;;11.83;100.00;100126.78;5016776;28;20116;-71
2023/10/24 02:03:35;;;;;;;9.88;6.38;;;;;;;11.82;100.00;100122.41;5004199;28;20038;-71
2023/10/24 02:06:03;;;;;;;8.45;5.82;;;;;;;11.80;100.00;100121.66;5037883;28;20050;-72
2023/10/24 02:08:30;;;;;;;7.50;5.70;;;;;;;11.80;100.00;100130.44;5017950;28;20053;-72
2023/10/24 02:10:57;;;;;;;6.90;5.50;;;;;;;11.78;100.00;100127.00;5012134;28;20068;-71
2023/10/24 02:13:25;;;;;;;8.27;5.65;;;;;;;11.78;100.00;100118.22;5016257;28;20120;-72
2023/10/24 02:15:54;;;;;;;5.50;4.93;;;;;;;11.75;100.00;100118.38;5023902;28;20045;-71
2023/10/24 02:18:21;;;;;;;6.97;5.18;;;;;;;11.72;100.00;100124.66;5020059;28;20520;-71
2023/10/24 02:20:49;;;;;;;6.03;5.22;;;;;;;11.70;100.00;100130.94;5011652;28;20073;-71
2023/10/24 02:23:16;;;;;;;6.55;4.93;;;;;;;11.69;100.00;100126.59;5004656;28;20100;-71
2023/10/24 02:25:43;;;;;;;6.07;5.40;;;;;;;11.67;100.00;100112.59;5005347;28;20060;-71
2023/10/24 02:28:11;;;;;;;7.18;5.28;;;;;;;11.66;100.00;100122.28;5006132;28;20042;-71
2023/10/24 02:30:38;;;;;;;8.52;6.13;;;;;;;11.64;100.00;100113.59;5019181;28;20056;-71
2023/10/24 02:33:05;;;;;;;8.43;5.88;;;;;;;11.63;100.00;100112.72;5025713;28;20049;-71
2023/10/24 02:35:33;;;;;;;8.77;5.40;;;;;;;11.63;100.00;100110.09;5021681;28;20140;-71
2023/10/24 02:38:00;;;;;;;9.07;5.55;;;;;;;11.62;100.00;100113.66;5019007;28;20037;-71
2023/10/24 02:40:28;;;;;;;7.25;5.57;;;;;;;11.63;100.00;100122.44;5025126;28;20537;-71
2023/10/24 02:42:55;;;;;;;6.45;5.50;;;;;;;11.63;100.00;100120.66;5024502;28;20120;-72
2023/10/24 02:45:23;;;;;;;7.25;6.00;;;;;;;11.62;100.00;100116.28;5040637;28;20042;-72
2023/10/24 02:47:51;;;;;;;10.13;6.07;;;;;;;11.64;100.00;100117.06;5038937;28;20049;-72
2023/10/24 02:50:20;;;;;;;8.88;5.63;;;;;;;11.65;100.00;100123.19;5025866;28;20061;-72
2023/10/24 02:52:47;;;;;;;6.30;5.70;;;;;;;11.65;100.00;100124.06;5021029;28;20103;-73
2023/10/24 02:55:14;;;;;;;9.07;5.47;;;;;;;11.65;100.00;100129.34;5025628;28;20568;-73
2023/10/24 02:57:41;;;;;;;9.10;5.97;;;;;;;11.67;100.00;100133.72;5023862;28;20045;-72
2023/10/24 03:00:09;;;;;;;9.23;5.90;;;;;;;11.68;100.00;100136.28;5035018;28;20129;-72
2023/10/24 03:02:37;;;;;;;7.65;5.35;;;;;;;11.68;100.00;100135.44;5018566;28;20084;-72
2023/10/24 03:05:05;;;;;;;8.30;5.95;;;;;;;11.69;100.00;100138.00;5023924;28;20588;-72
2023/10/24 03:07:32;;;;;;;7.15;5.18;;;;;;;11.71;100.00;100146.69;5020841;28;20041;-71
2023/10/24 03:09:59;;;;;;;7.18;5.45;;;;;;;11.71;100.00;100136.13;5008559;28;20073;-71
2023/10/24 03:12:27;;;;;;;7.40;5.82;;;;;;;11.72;100.00;100142.25;5005632;28;20703;-72
2023/10/24 03:14:55;;;;;;;7.18;5.47;;;;;;;11.71;100.00;100144.06;5012787;28;20339;-72
2023/10/24 03:17:22;;;;;;;7.53;5.57;;;;;;;11.74;100.00;100143.94;5020880;28;20116;-71
2023/10/24 03:19:50;;;;;;;7.82;5.90;;;;;;;11.73;100.00;100142.22;5013296;28;20134;-71
2023/10/24 03:22:17;;;;;;;6.95;5.78;;;;;;;11.73;100.00;100144.84;5021947;28;20051;-71
2023/10/24 03:24:44;;;;;;;6.95;6.10;;;;;;;11.74;100.00;100141.28;5021585;28;20117;-71
2023/10/24 03:27:13;;;;;;;7.35;5.90;;;;;;;11.75;100.00;100147.41;5005148;28;20030;-71
2023/10/24 03:29:43;;;;;;;8.40;6.20;;;;;;;11.74;100.00;100149.22;5009268;28;20064;-71
2023/10/24 03:32:10;;;;;;;8.38;6.20;;;;;;;11.73;100.00;100144.84;5018215;28;20056;-71
2023/10/24 03:34:37;;;;;;;7.32;5.82;;;;;;;11.72;100.00;100145.78;5018832;28;20049;-71
2023/10/24 03:37:05;;;;;;;9.23;6.50;;;;;;;11.70;100.00;100134.41;5031105;28;20104;-71
2023/10/24 03:39:32;;;;;;;9.15;6.63;;;;;;;11.68;100.00;100131.00;5005285;28;20092;-72
2023/10/24 03:41:59;;;;;;;8.73;6.05;;;;;;;11.69;100.00;100131.88;5017247;28;20180;-71
2023/10/24 03:44:26;;;;;;;8.20;6.47;;;;;;;11.68;100.00;100133.63;5017125;28;20049;-71
2023/10/24 03:46:53;;;;;;;8.60;6.68;;;;;;;11.68;100.00;100138.91;5022233;28;20605;-72
2023/10/24 03:49:21;;;;;;;10.35;7.50;;;;;;;11.65;100.00;100131.13;5016402;28;20207;-72
2023/10/24 03:51:48;;;;;;;8.35;7.38;;;;;;;11.63;100.00;100128.56;5008903;28;20057;-72
2023/10/24 03:54:15;;;;;;;9.43;7.53;;;;;;;11.64;100.00;100140.00;5021039;28;20045;-72
2023/10/24 03:56:43;;;;;;;8.98;7.03;;;;;;;11.62;100.00;100144.47;5008331;28;20069;-72
2023/10/24 03:59:10;;;;;;;9.43;7.90;;;;;;;11.60;100.00;100141.91;5009137;28;20145;-71
2023/10/24 04:01:37;;;;;;;9.55;8.18;;;;;;;11.59;100.00;100145.50;5022195;28;20052;-71
2023/10/24 04:04:04;;;;;;;10.75;8.23;;;;;;;11.59;100.00;100144.63;5011036;28;20478;-71
2023/10/24 04:06:31;;;;;;;11.50;8.40;;;;;;;11.57;100.00;100142.06;5024097;28;20261;-71
2023/10/24 04:09:02;;;;;;;11.27;8.88;;;;;;;11.55;100.00;100133.34;5012097;28;20038;-71
2023/10/24 04:11:31;;;;;;;11.60;8.90;;;;;;;11.55;100.00;100130.69;5025968;28;20067;-72
2023/10/24 04:13:58;;;;;;;10.88;7.68;;;;;;;11.55;100.00;100137.78;5025922;28;20049;-72
2023/10/24 04:16:25;;;;;;;10.55;8.02;;;;;;;11.52;100.00;100136.13;5029105;28;20502;-72
2023/10/24 04:18:52;;;;;;;8.60;7.70;;;;;;;11.54;100.00;100141.34;5010094;28;20042;-71
2023/10/24 04:21:19;;;;;;;9.52;7.88;;;;;;;11.51;100.00;100137.03;5023874;28;20037;-72
2023/10/24 04:23:46;;;;;;;9.93;8.27;;;;;;;11.50;100.00;100138.84;5026499;28;20044;-73
2023/10/24 04:26:14;;;;;;;11.38;8.43;;;;;;;11.50;100.00;100133.56;5026054;28;20046;-71
2023/10/24 04:28:41;;;;;;;12.35;8.40;;;;;;;11.49;100.00;100129.19;5040150;28;20580;-74
2023/10/24 04:31:09;;;;;;;11.07;8.20;;;;;;;11.51;100.00;100123.84;5027389;28;20452;-72
2023/10/24 04:33:36;;;;;;;12.90;8.52;;;;;;;11.48;100.00;100124.00;5024664;28;20575;-71
2023/10/24 04:36:10;;;;;;;10.20;8.32;;;;;;;11.49;100.00;100121.28;5027552;28;20080;-71
2023/10/24 04:38:37;;;;;;;9.48;8.45;;;;;;;11.48;100.00;100114.28;5026480;28;20038;-72
2023/10/24 04:41:04;;;;;;;10.38;8.05;;;;;;;11.48;100.00;100119.56;5019951;28;20049;-70
2023/10/24 04:43:32;;;;;;;10.02;8.07;;;;;;;11.48;100.00;100122.19;5030092;28;20412;-70
2023/10/24 04:45:59;;;;;;;9.25;7.88;;;;;;;11.50;100.00;100112.44;5024837;28;20045;-70
2023/10/24 04:48:26;;;;;;;10.73;7.47;;;;;;;11.56;100.00;100116.59;5026230;28;20046;-70
2023/10/24 04:50:53;;;;;;;10.00;7.35;;;;;;;11.63;100.00;100117.16;5022366;28;20557;-72
2023/10/24 04:53:20;;;;;;;8.93;6.90;;;;;;;11.67;100.00;100108.16;5023958;28;20413;-70
2023/10/24 04:55:47;;;;;;;10.15;7.65;;;;;;;11.67;100.00;100110.78;5029662;28;20069;-70
2023/10/24 04:58:14;;;;;;;9.02;6.57;;;;;;;11.70;100.00;100112.47;5008635;28;20046;-71
2023/10/24 05:00:41;;;;;;;7.78;6.63;;;;;;;11.69;100.00;100121.31;5023288;28;20076;-70
2023/10/24 05:03:09;;;;;;;10.27;7.20;;;;;;;11.70;100.00;100130.94;5026742;28;20064;-70
2023/10/24 05:05:36;;;;;;;7.72;6.55;;;;;;;11.73;100.00;100136.94;5012221;28;20124;-70
2023/10/24 05:08:07;;;;;;;7.32;6.43;;;;;;;11.78;100.00;100129.63;5030553;28;20082;-70
2023/10/24 05:10:35;;;;;;;8.65;7.35;;;;;;;11.84;100.00;100143.50;5026397;28;20493;-70
2023/10/24 05:13:03;;;;;;;8.02;7.22;;;;;;;11.85;100.00;100134.66;5027436;28;20373;-70
2023/10/24 05:15:30;;;;;;;8.75;7.07;;;;;;;11.83;100.00;100120.66;5026663;28;20065;-72
2023/10/24 05:17:57;;;;;;;8.82;7.63;;;;;;;11.82;100.00;100125.06;5021962;28;20501;-71
2023/10/24 05:20:24;;;;;;;8.65;7.53;;;;;;;11.76;100.00;100138.56;5041718;28;20049;-72
2023/10/24 05:22:52;;;;;;;8.38;7.50;;;;;;;11.71;100.00;100141.41;5019903;28;20358;-72
2023/10/24 05:25:19;;;;;;;7.85;6.97;;;;;;;11.65;100.00;100139.91;5030394;28;20096;-72
2023/10/24 05:27:46;;;;;;;8.93;6.82;;;;;;;11.59;100.00;100124.38;5025503;28;20401;-71
2023/10/24 05:30:13;;;;;;;7.70;6.80;;;;;;;11.57;100.00;100128.84;5024219;28;20133;-72
2023/10/24 05:32:40;;;;;;;10.15;6.93;;;;;;;11.55;100.00;100127.22;5019976;28;20418;-71
2023/10/24 05:35:07;;;;;;;7.25;5.97;;;;;;;11.50;100.00;100111.56;5015705;28;20624;-72
2023/10/24 05:37:34;;;;;;;10.68;6.72;;;;;;;11.45;100.00;100095.94;5024272;28;20045;-72
2023/10/24 05:40:02;;;;;;;7.70;6.07;;;;;;;11.44;100.00;100106.56;5024165;28;20041;-72
2023/10/24 05:42:29;;;;;;;10.05;6.25;;;;;;;11.42;100.00;100092.59;5019736;28;20770;-72
2023/10/24 05:44:56;;;;;;;8.10;6.57;;;;;;;11.40;100.00;100105.00;5018567;28;20037;-72
2023/10/24 05:47:23;;;;;;;7.22;5.85;;;;;;;11.39;100.00;100109.44;5018585;28;20045;-71
2023/10/24 05:49:50;;;;;;;7.32;6.15;;;;;;;11.36;100.00;100114.84;5016762;28;20454;-72
2023/10/24 05:52:18;;;;;;;7.15;5.95;;;;;;;11.36;100.00;100114.84;5024271;28;20095;-72
2023/10/24 05:54:45;;;;;;;6.15;5.50;;;;;;;11.34;100.00;100120.19;5021317;28;20037;-72
2023/10/24 05:57:12;;;;;;;5.88;5.28;;;;;;;11.34;100.00;100116.72;5023353;28;20638;-72
2023/10/24 05:59:39;;;;;;;8.30;5.28;;;;;;;11.31;100.00;100117.69;5048093;28;20497;-72
2023/10/24 06:02:07;;;;;;;6.80;5.63;;;;;;;11.31;100.00;100115.03;5007499;28;20100;-73
2023/10/24 06:04:35;;;;;;;5.80;5.15;;;;;;;11.30;100.00;100121.25;5020880;28;20033;-73
2023/10/24 06:07:07;;;;;;;5.25;4.75;;;;;;;11.31;100.00;100133.50;5039820;28;20071;-72
2023/10/24 06:09:34;;;;;;;7.35;4.78;;;;;;;11.29;100.00;100126.59;5008450;28;20030;-73
2023/10/24 06:12:01;;;;;;;4.28;3.78;;;;;;;11.27;100.00;100133.72;5019389;28;20046;-72
2023/10/24 06:14:28;;;;;;;6.35;4.25;;;;;;;11.25;100.00;100133.81;5028681;28;20046;-72
2023/10/24 06:16:55;;;;;;;5.88;3.78;;;;;;;11.24;100.00;100139.16;5031933;28;20041;-72
2023/10/24 06:19:22;;;;;;;5.50;3.78;;;;;;;11.23;100.00;100140.06;5034915;28;20038;-72
2023/10/24 06:21:49;;;;;;;4.60;4.15;;;;;;;11.24;100.00;100126.81;5022663;28;20127;-73
2023/10/24 06:24:16;;;;;;;5.00;3.42;;;;;;;11.25;100.00;100130.28;5025348;28;20041;-72
2023/10/24 06:26:43;;;;;;;4.32;3.65;;;;;;;11.22;100.00;100138.38;5012113;28;20111;-72
2023/10/24 06:29:10;;;;;;;5.28;3.47;;;;;;;11.22;100.00;100148.91;5025679;28;20566;-72
2023/10/24 06:31:37;;;;;;;4.68;3.78;;;;;;;11.19;100.00;100142.00;5041535;28;20124;-72
2023/10/24 06:34:06;;;;;;;4.80;4.30;;;;;;;11.17;100.00;100142.03;5025054;28;20087;-72
2023/10/24 06:36:34;;;;;;;5.47;4.15;;;;;;;11.16;100.00;100135.06;5026712;28;20183;-72
2023/10/24 06:39:05;;;;;;;5.53;4.72;;;;;;;11.14;100.00;100136.91;5044273;28;20033;-73
2023/10/24 06:41:33;;;;;;;7.07;5.10;;;;;;;11.15;100.00;100138.63;5031581;28;20293;-73
2023/10/24 06:44:00;;;;;;;5.00;4.50;;;;;;;11.16;100.00;100147.41;5024494;28;20128;-72
2023/10/24 06:46:27;;;;;;;6.40;4.80;;;;;;;11.17;100.00;100152.59;5026025;28;20060;-72
2023/10/24 06:48:54;;;;;;;5.47;4.80;;;;;;;11.18;100.00;100156.13;5025586;28;20128;-72
2023/10/24 06:51:22;;;;;;;8.20;5.15;;;;;;;11.16;100.00;100153.53;5024498;28;20569;-72
2023/10/24 06:53:50;;;;;;;7.65;5.40;;;;;;;11.17;100.00;100152.59;5040328;28;20049;-72
2023/10/24 06:56:17;;;;;;;6.53;5.60;;;;;;;11.19;100.00;100152.56;5025319;28;20146;-72
2023/10/24 06:58:48;;;;;;;8.65;5.80;;;;;;;11.16;100.00;100142.97;5036350;28;20049;-73
2023/10/24 07:01:15;;;;;;;7.05;6.35;;;;;;;11.16;100.00;100150.03;5025553;28;20115;-72
2023/10/24 07:03:42;;;;;;;7.95;6.72;;;;;;;11.15;100.00;100137.78;5024823;28;20038;-72
2023/10/24 07:06:12;;;;;;;8.30;6.82;;;;;;;11.15;100.00;100130.69;5025634;28;20510;-72
2023/10/24 07:08:40;;;;;;;7.13;6.43;;;;;;;11.15;100.00;100140.41;5040553;28;20052;-72
2023/10/24 07:11:07;;;;;;;7.00;6.30;;;;;;;11.16;100.00;100144.75;5045768;28;20554;-72
2023/10/24 07:13:37;;;;;;;9.13;7.15;;;;;;;11.16;100.00;100136.84;5029691;28;20064;-72
2023/10/24 07:16:15;;;;;;;7.95;6.32;;;;;;;11.16;100.00;100132.41;5028774;28;20049;-72
2023/10/24 07:18:43;;;;;;;7.75;6.50;;;;;;;11.18;100.00;100135.84;5028022;28;20065;-72
2023/10/24 07:21:10;;;;;;;10.07;6.70;;;;;;;11.20;100.00;100135.78;5044878;28;20053;-72
2023/10/24 07:23:38;;;;;;;9.15;6.38;;;;;;;11.21;100.00;100126.09;5028076;28;20080;-72
2023/10/24 07:26:05;;;;;;;8.50;6.20;;;;;;;11.22;100.00;100125.16;5028443;28;20052;-73
2023/10/24 07:28:32;;;;;;;9.98;6.70;;;;;;;11.25;100.00;100140.84;5027740;28;20524;-72
2023/10/24 07:30:59;;;;;;;7.45;6.28;;;;;;;11.26;100.00;100132.88;5026924;28;20060;-72
2023/10/24 07:33:26;;;;;;;9.20;6.78;;;;;;;11.27;100.00;100121.41;5028132;28;20052;-72
2023/10/24 07:35:53;;;;;;;9.90;6.07;;;;;;;11.29;100.00;100126.59;5027846;28;20061;-72
2023/10/24 07:38:21;;;;;;;9.88;6.03;;;;;;;11.31;100.00;100125.59;5042825;28;20068;-73
2023/10/24 07:40:48;;;;;;;8.38;6.05;;;;;;;11.33;100.00;100125.56;5038806;28;20053;-72
2023/10/24 07:43:15;;;;;;;6.18;5.28;;;;;;;11.38;100.00;100120.06;5026560;28;20341;-72
2023/10/24 07:45:49;;;;;;;8.75;5.95;;;;;;;11.41;100.00;100123.41;5039091;28;20128;-72
2023/10/24 07:48:17;;;;;;;5.60;5.00;;;;;;;11.49;100.00;100117.78;5029394;28;20045;-72
2023/10/24 07:50:55;;;;;;;6.85;4.80;;;;;;;11.56;100.00;100119.22;5018451;28;20395;-72
2023/10/24 07:53:25;;;;;;;8.48;4.80;;;;;;;11.66;100.00;100114.34;5026536;28;20053;-72
2023/10/24 07:55:53;;;;;;;7.78;5.22;;;;;;;11.73;100.00;100102.59;5028743;28;20135;-72
2023/10/24 07:58:20;;;;;;;7.30;5.20;;;;;;;11.78;100.00;100107.66;5012361;28;20053;-72
2023/10/24 08:00:48;;;;;;;7.65;5.53;;;;;;;11.85;100.00;100109.09;5027367;28;20048;-72
2023/10/24 08:03:16;;;;;;;9.13;5.25;;;;;;;11.95;100.00;100109.50;5027714;28;20037;-72
2023/10/24 08:05:43;;;;;;;6.30;5.30;;;;;;;12.01;100.00;100106.59;5029706;28;20073;-71
2023/10/24 08:08:11;;;;;;;7.20;5.65;;;;;;;12.06;100.00;100109.03;5016492;28;20557;-71
2023/10/24 08:10:38;;;;;;;8.10;5.88;;;;;;;12.11;100.00;100104.34;5007593;28;20054;-72
2023/10/24 08:13:05;;;;;;;8.82;6.20;;;;;;;12.16;100.00;100114.72;5024294;28;20053;-72
2023/10/24 08:15:32;;;;;;;9.13;5.93;;;;;;;12.21;100.00;100102.13;5010247;28;20053;-73
2023/10/24 08:17:59;;;;;;;8.30;6.10;;;;;;;12.28;100.00;100106.19;5036308;28;20497;-72
2023/10/24 08:20:27;;;;;;;8.10;6.00;;;;;;;12.32;100.00;100107.75;5009351;28;20053;-72
2023/10/24 08:22:54;;;;;;;8.15;6.00;;;;;;;12.34;100.00;100094.44;5027834;28;20437;-72
2023/10/24 08:25:22;;;;;;;7.45;5.95;;;;;;;12.37;100.00;100096.94;5043284;28;20456;-72
2023/10/24 08:27:49;;;;;;;13.00;6.20;;;;;;;12.33;100.00;100092.75;5022710;28;20056;-71
2023/10/24 08:30:16;;;;;;;11.65;6.07;;;;;;;12.27;100.00;100104.47;5006353;28;20060;-72
2023/10/24 08:32:43;;;;;;;9.75;6.43;;;;;;;12.24;100.00;100115.22;5009503;28;20116;-73
2023/10/24 08:35:10;;;;;;;9.75;6.05;;;;;;;12.27;100.00;100134.41;5020254;28;20504;-71
2023/10/24 08:37:37;;;;;;;7.97;5.75;;;;;;;12.34;100.00;100140.25;5006920;28;20046;-72
2023/10/24 08:40:05;;;;;;;7.97;5.72;;;;;;;12.41;100.00;100136.38;5008022;28;20046;-72
2023/10/24 08:42:36;;;;;;;8.30;6.13;;;;;;;12.48;100.00;100136.94;5008583;28;20395;-72
2023/10/24 08:45:05;;;;;;;7.53;5.20;;;;;;;12.54;100.00;100138.41;5007990;28;20057;-72
2023/10/24 08:47:34;;;;;;;10.43;5.40;;;;;;;12.61;100.00;100155.69;5009063;28;20068;-72
2023/10/24 08:50:02;;;;;;;6.80;5.47;;;;;;;12.73;100.00;100164.78;5023100;28;20553;-72
2023/10/24 08:52:30;;;;;;;7.97;5.00;;;;;;;12.83;100.00;100170.47;5007694;28;20133;-72
2023/10/24 08:55:04;;;;;;;7.63;4.97;;;;;;;12.87;100.00;100172.88;5006680;28;20045;-72
2023/10/24 08:57:43;;;;;;;8.05;5.05;;;;;;;12.98;100.00;100164.38;5023081;28;20050;-72
2023/10/24 09:00:14;;;;;;;6.53;4.78;;;;;;;13.00;100.00;100154.59;5006911;28;20092;-72
2023/10/24 09:02:43;;;;;;;8.90;5.05;;;;;;;13.14;100.00;100160.97;5025703;28;20132;-72
2023/10/24 09:05:13;;;;;;;8.70;4.43;;;;;;;13.26;100.00;100154.16;5023788;28;20581;-72
2023/10/24 09:07:41;;;;;;;6.50;4.57;;;;;;;13.34;100.00;100147.53;5025472;28;20128;-71
2023/10/24 09:10:09;;;;;;;7.85;4.30;;;;;;;13.47;99.33;100136.34;5042888;28;20103;-73
2023/10/24 09:12:38;;;;;;;6.55;4.32;;;;;;;13.55;99.86;100134.13;5027818;28;20045;-71
2023/10/24 09:15:11;;;;;;;6.22;4.20;;;;;;;13.57;99.08;100126.97;5026804;28;20045;-72
2023/10/24 09:17:38;;;;;;;8.52;3.80;;;;;;;13.69;98.44;100127.22;5027731;28;20049;-72
2023/10/24 09:20:07;;;;;;;6.18;4.20;;;;;;;13.66;98.54;100115.88;5043022;28;20045;-72
2023/10/24 09:22:35;;;;;;;4.43;3.60;;;;;;;13.78;97.67;100121.44;5026914;28;20045;-72
2023/10/24 09:25:03;;;;;;;7.55;4.18;;;;;;;13.90;96.68;100110.13;5018837;28;20053;-72
2023/10/24 09:27:30;;;;;;;7.25;4.00;;;;;;;14.01;96.36;100106.03;5014363;28;20045;-72
2023/10/24 09:29:58;;;;;;;5.45;3.70;;;;;;;14.08;95.36;100110.06;5026232;28;20563;-72
2023/10/24 09:32:25;;;;;;;5.15;3.63;;;;;;;14.08;94.94;100110.06;5018749;28;20129;-73
2023/10/24 09:34:52;;;;;;;8.15;3.75;;;;;;;14.09;95.79;100109.97;5023546;28;20050;-72
2023/10/24 09:37:19;;;;;;;5.95;4.10;;;;;;;14.10;95.76;100110.81;5041939;28;20292;-73
2023/10/24 09:39:58;;;;;;;7.97;4.28;;;;;;;14.09;96.04;100114.41;5024904;28;20037;-73
2023/10/24 09:42:31;;;;;;;7.55;4.15;;;;;;;14.12;97.55;100122.19;5026207;28;20091;-73
2023/10/24 09:45:06;;;;;;;5.15;3.60;;;;;;;14.11;95.85;100121.34;5018725;28;20069;-72
2023/10/24 09:47:36;;;;;;;6.72;3.72;;;;;;;14.11;96.77;100125.75;5026749;28;20777;-72
2023/10/24 09:50:08;;;;;;;5.25;3.65;;;;;;;14.20;96.51;100129.69;5011779;28;20048;-73
2023/10/24 09:52:37;;;;;;;8.13;4.10;;;;;;;14.27;96.46;100128.41;5005157;28;20487;-73
2023/10/24 09:55:05;;;;;;;4.68;3.78;;;;;;;14.31;97.15;100132.59;5020938;28;20046;-74
2023/10/24 09:57:34;;;;;;;6.43;3.58;;;;;;;14.32;95.39;100129.00;5016751;28;20124;-72
2023/10/24 10:00:04;;;;;;;5.95;3.42;;;;;;;14.31;95.38;100124.66;5019289;28;20064;-72
2023/10/24 10:02:41;;;;;;;4.25;3.35;;;;;;;14.24;94.84;100124.13;5019039;28;20493;-72
2023/10/24 10:05:09;;;;;;;5.15;3.60;;;;;;;14.21;95.77;100121.66;5018321;28;20045;-72
2023/10/24 10:07:39;;;;;;;4.18;3.30;;;;;;;14.18;95.81;100124.50;5012412;28;20040;-73
2023/10/24 10:10:10;;;;;;;6.95;3.50;;;;;;;14.17;95.43;100116.63;5025922;28;20061;-73
2023/10/24 10:12:39;;;;;;;4.72;3.30;;;;;;;14.14;94.88;100110.53;5026472;28;20087;-72
2023/10/24 10:15:18;;;;;;;6.00;3.22;;;;;;;14.13;95.11;100103.56;5026372;28;20052;-73
2023/10/24 10:18:53;;;;;;;4.38;3.05;;;;;;;14.16;95.92;100109.59;5040337;28;20120;-73
2023/10/24 10:21:39;;;;;;;6.68;3.15;;;;;;;14.19;94.42;100107.66;4967380;28;20179;-73
2023/10/24 10:24:30;;;;;;;4.30;2.88;;;;;;;14.22;93.94;100106.63;5010716;28;20046;-73
2023/10/24 10:27:19;;;;;;;4.15;2.55;;;;;;;14.22;94.67;100096.84;5022467;28;20053;-73
2023/10/24 10:30:13;;;;;;;6.53;3.17;;;;;;;14.25;94.51;100103.78;5024157;28;20033;-73
2023/10/24 10:33:15;;;;;;;4.72;2.90;;;;;;;14.31;94.60;100102.56;5024929;28;20049;-72
2023/10/24 10:35:50;;;;;;;8.80;2.92;;;;;;;14.32;93.65;100098.97;5023964;28;20936;-73
2023/10/24 10:38:48;;;;;;;4.20;2.95;;;;;;;14.32;93.51;100094.53;5024555;28;20490;-73
2023/10/24 10:41:25;;;;;;;4.50;2.80;;;;;;;14.32;94.42;100083.94;5024002;28;20433;-73
2023/10/24 10:43:55;;;;;;;6.03;2.80;;;;;;;14.34;94.74;100082.06;5003929;28;20125;-73
2023/10/24 10:46:26;;;;;;;3.40;2.58;;;;;;;14.35;93.76;100096.16;5004827;28;20046;-73
2023/10/24 10:49:03;;;;;;;4.68;2.83;;;;;;;14.33;94.25;100085.66;5005005;28;20060;-72
2023/10/24 10:51:41;;;;;;;3.90;3.00;;;;;;;14.33;94.79;100082.13;5004908;28;20403;-73
2023/10/24 10:54:23;;;;;;;4.90;3.10;;;;;;;14.31;93.86;100073.41;5005870;28;20049;-73
2023/10/24 10:56:51;;;;;;;4.53;3.10;;;;;;;14.29;93.85;100086.75;5039291;28;20518;-72
2023/10/24 10:59:43;;;;;;;6.30;3.22;;;;;;;14.29;93.77;100086.75;5018138;28;20042;-74
2023/10/24 11:02:50;;;;;;;4.80;3.10;;;;;;;14.26;93.45;100085.16;5014068;28;20140;-73
2023/10/24 11:05:36;;;;;;;3.17;2.38;;;;;;;14.20;93.58;100090.78;5018218;28;20041;-74
2023/10/24 11:08:10;;;;;;;4.07;2.97;;;;;;;14.18;94.16;100095.34;5030872;28;20046;-74
2023/10/24 11:10:57;;;;;;;3.85;2.70;;;;;;;14.16;91.85;100091.91;5023513;28;20452;-75
2023/10/24 11:13:32;;;;;;;4.47;3.08;;;;;;;14.14;91.80;100083.19;5024036;28;20838;-73
2023/10/24 11:16:02;;;;;;;3.67;2.70;;;;;;;14.10;93.35;100084.31;5022722;28;20045;-72
2023/10/24 11:18:31;;;;;;;4.35;2.78;;;;;;;14.10;93.47;100085.16;5021653;28;20041;-72
2023/10/24 11:21:02;;;;;;;5.07;2.67;;;;;;;14.13;92.45;100082.34;5005755;28;20721;-73
2023/10/24 11:23:31;;;;;;;4.82;3.13;;;;;;;14.14;93.01;100075.25;5006809;28;20070;-73
2023/10/24 11:26:00;;;;;;;4.53;3.00;;;;;;;14.14;92.95;100077.91;5009784;28;20058;-72